EPWA/WAW METAR and TAF weather

Enter ICAO airport designator
Station Type Date Time Source
EPWA METAR 2018/09/21 23:00 UTC NOAA

EPWA 212300Z 22007KT 190V260 CAVOK 20/12 Q1008 TEMPO 27015G30KT


Station Type Date Time Source
EPWA Decoded METAR 2018/09/21 23:00 UTC NOAA

Warszawa-Okecie, Poland (EPWA) 52-10N 020-58E 107M
Sep 21, 2018 - 07:00 PM EDT / 2018.09.21 2300 UTC
Wind: from the SW (220 degrees) at 8 MPH (7 KT) (direction variable):0
Visibility: greater than 7 mile(s):0
Temperature: 68 F (20 C)
Dew Point: 53 F (12 C)
Relative Humidity: 59%
Pressure (altimeter): 29.77 in. Hg (1008 hPa)
ob: EPWA 212300Z 22007KT 190V260 CAVOK 20/12 Q1008 TEMPO 27015G30KT
cycle: 23

Station Type Date Time Source
EPWA TAF 2018/09/21 21:37 UTC NOAA

TAF EPWA 212030Z 2121/2221 17010KT CAVOK
BECMG 2123/2201 32014KT
TEMPO 2200/2204 27022G42KT PROB40
TEMPO 2201/2216 SHRA BKN020CB PROB30 2201/2205 4000 RA SCT009 BKN014
BECMG 2208/2210 26012KT
TEMPO 2208/2216 27015G34KT


Example: see airport list